This is the latest recevied weather packets stored in our database for station/object LKKB. If no packets are shown the sender has not sent any weather packets the latest 10 day(s).
| Time | Temp. | Humidity | Pressure | Rain* | Wind** | Luminosity | Snow |
|---|---|---|---|---|---|---|---|
| 1788297482 | 15.56° C | 72% | 1020 hPa | - | - | - | - |
| 1788296581 | 15.56° C | 72% | 1020 hPa | - | - | - | - |
| 1788295682 | 15.56° C | 67% | 1020 hPa | - | - | - | - |
| 1788294781 | 15.56° C | 67% | 1020 hPa | - | - | - | - |
| 1788293881 | 16.67° C | 67% | 1020 hPa | - | - | - | - |
| 1788292981 | 16.67° C | 67% | 1020 hPa | - | - | - | - |
| 1788292083 | 17.78° C | 63% | 1020 hPa | - | - | - | - |
| 1788291182 | 17.78° C | 63% | 1020 hPa | - | - | - | - |
| 1788290282 | 17.78° C | 63% | 1020 hPa | - | - | - | - |
| 1788289382 | 17.78° C | 63% | 1020 hPa | - | - | - | - |
| 1788288483 | 18.89° C | 59% | 1020 hPa | - | - | - | - |
| 1788287582 | 18.89° C | 59% | 1020 hPa | - | - | - | - |
| 1788286682 | 20° C | 52% | 1020 hPa | - | - | - | - |
| 1788285781 | 20° C | 52% | 1020 hPa | - | - | - | - |
| 1788284882 | 20.56° C | 46% | 1019 hPa | - | - | - | - |
| 1788283981 | 20.56° C | 46% | 1019 hPa | - | - | - | - |
| 1788283082 | 20.56° C | 49% | 1019 hPa | - | - | - | - |
| 1788282181 | 20.56° C | 49% | 1019 hPa | - | - | - | - |
| 1788281282 | 21.67° C | 46% | 1019 hPa | - | - | - | - |
| 1788280381 | 21.67° C | 46% | 1019 hPa | - | - | - | - |
| 1788279481 | 22.78° C | 46% | 1019 hPa | - | - | - | - |
| 1788278581 | 22.78° C | 46% | 1019 hPa | - | - | - | - |
| 1788277682 | 22.78° C | 43% | 1020 hPa | - | - | - | - |
| 1788276781 | 22.78° C | 43% | 1020 hPa | - | - | - | - |
| 1788275881 | 21.67° C | 46% | 1020 hPa | - | - | - | - |
* Rain since midnight (hover to see other rain measurements)
** Current wind speed in m/s (hover to see current wind gust speed)